Time;durP1;ratioP1;P1;durP2;ratioP2;P2;SDS_P1;SDS_P2;PMS_P1;PMS_P2;Temp;Humidity;BMP_temperature;BMP_pressure;BME280_temperature;BME280_humidity;BME280_pressure;Samples;Min_cycle;Max_cycle;Signal;HPM_P1;HPM_P2
2023/09/26 19:42:57;;;;;;;;;;;21.30;99.90;;;;;;2591942;39;20221;31
2023/09/26 20:12:14;;;;;;;;;;;17.60;99.90;;;;;;2554780;54;3007637;-73
2023/09/26 20:14:45;;;;;;;;;;;17.50;99.90;;;;;;2612457;47;19973;-73
2023/09/26 20:17:15;;;;;;;;;;;17.50;99.90;;;;;;2629963;36;20482;-75
2023/09/26 20:19:45;;;;;;;;;;;17.50;99.90;;;;;;2612659;54;19947;-74
2023/09/26 20:22:15;;;;;;;;;;;18.70;99.90;;;;;;2612711;54;20485;-74
2023/09/26 20:24:45;;;;;;;;;;;17.40;99.90;;;;;;2613138;54;19970;-73
2023/09/26 20:27:17;;;;;;;;;;;17.40;99.90;;;;;;2612589;54;20020;-73
2023/09/26 20:29:47;;;;;;;;;;;17.40;99.90;;;;;;2613290;47;20059;-73
2023/09/26 20:32:17;;;;;;;;;;;17.40;99.90;;;;;;2613005;47;19950;-73
2023/09/26 20:35:10;;;;;;;;;;;17.40;99.90;;;;;;2613764;47;19994;-74
2023/09/26 20:37:58;;;;;;;;;;;17.30;99.90;;;;;;2607878;47;20937;-73
2023/09/26 20:40:28;;;;;;;;;;;17.30;99.90;;;;;;2610027;47;19958;-73
2023/09/26 20:43:01;;;;;;;;;;;17.30;99.90;;;;;;2611717;47;19982;-73
2023/09/26 20:45:31;;;;;;;;;;;17.20;99.90;;;;;;2615783;54;19946;-73
2023/09/26 20:48:00;;;;;;;;;;;17.20;99.90;;;;;;2612983;54;20038;-74
2023/09/26 20:50:30;;;;;;;;;;;17.20;99.90;;;;;;2612838;47;20002;-73
2023/09/26 20:53:00;;;;;;;;;;;17.10;99.90;;;;;;2612544;54;19952;-73
2023/09/26 20:55:30;;;;;;;;;;;17.10;99.90;;;;;;2612575;39;20358;-74
2023/09/26 20:58:02;;;;;;;;;;;17.10;99.90;;;;;;2612390;54;20054;-74
2023/09/26 21:00:32;;;;;;;;;;;17.10;99.90;;;;;;2612393;54;20459;-73
2023/09/26 21:03:02;;;;;;;;;;;17.10;99.90;;;;;;2611718;54;19946;-75
2023/09/26 21:05:36;;;;;;;;;;;17.10;99.90;;;;;;2614558;54;19947;-75
2023/09/26 21:08:07;;;;;;;;;;;17.10;99.90;;;;;;2617519;46;19972;-74
2023/09/26 21:10:37;;;;;;;;;;;17.10;99.90;;;;;;2618616;47;19945;-75
2023/09/26 21:13:09;;;;;;;;;;;17.10;99.90;;;;;;2617519;49;19947;-75
2023/09/26 21:15:39;;;;;;;;;;;17.00;99.90;;;;;;2618453;47;20469;-76
2023/09/26 21:18:09;;;;;;;;;;;17.10;99.90;;;;;;2618772;39;20430;-75
2023/09/26 21:20:43;;;;;;;;;;;17.00;99.90;;;;;;2618056;47;19981;-75
2023/09/26 21:23:12;;;;;;;;;;;17.00;99.90;;;;;;2621554;54;19939;-75
2023/09/26 21:25:42;;;;;;;;;;;17.00;99.90;;;;;;2623474;47;19969;-75
2023/09/26 21:28:15;;;;;;;;;;;17.00;99.90;;;;;;2629040;53;19951;-74
2023/09/26 21:30:44;;;;;;;;;;;16.90;99.90;;;;;;2631918;47;19927;-76
2023/09/26 21:33:14;;;;;;;;;;;16.90;99.90;;;;;;2630960;47;19975;-75
2023/09/26 21:35:44;;;;;;;;;;;16.90;99.90;;;;;;2626013;50;19950;-76
2023/09/26 21:38:14;;;;;;;;;;;16.90;99.90;;;;;;2619812;54;19946;-75
2023/09/26 21:40:44;;;;;;;;;;;16.90;99.90;;;;;;2619063;54;19946;-76
2023/09/26 21:43:24;;;;;;;;;;;16.90;99.90;;;;;;2619957;47;19942;-78
2023/09/26 21:45:55;;;;;;;;;;;16.90;99.90;;;;;;2624347;54;19950;-77
2023/09/26 21:48:31;;;;;;;;;;;16.90;99.90;;;;;;2622093;54;19947;-76
2023/09/26 21:51:06;;;;;;;;;;;16.90;99.90;;;;;;2622798;47;19953;-75
2023/09/26 21:53:36;;;;;;;;;;;16.90;99.90;;;;;;2617585;46;19953;-75
2023/09/26 21:56:09;;;;;;;;;;;16.90;99.90;;;;;;2618857;39;20418;-76
2023/09/26 22:01:15;;;;;;;;;;;16.80;99.90;;;;;;2619221;54;19994;-76
2023/09/26 22:03:45;;;;;;;;;;;16.80;99.90;;;;;;2620125;54;20045;-76
2023/09/26 22:06:15;;;;;;;;;;;16.80;99.90;;;;;;2618977;47;19938;-75
2023/09/26 22:08:45;;;;;;;;;;;16.80;99.90;;;;;;2619449;31;20392;-75
2023/09/26 22:11:15;;;;;;;;;;;16.80;99.90;;;;;;2620643;47;19945;-76
2023/09/26 22:13:45;;;;;;;;;;;16.80;99.90;;;;;;2621267;54;19942;-77
2023/09/26 22:16:18;;;;;;;;;;;17.90;99.90;;;;;;2626110;47;19945;-77
2023/09/26 22:18:49;;;;;;;;;;;16.70;99.90;;;;;;2618838;54;19957;-77
2023/09/26 22:21:19;;;;;;;;;;;16.70;99.90;;;;;;2618534;47;19947;-76
2023/09/26 22:23:49;;;;;;;;;;;16.80;99.90;;;;;;2619002;39;20351;-77
2023/09/26 22:26:19;;;;;;;;;;;16.70;99.90;;;;;;2618508;39;20283;-76
2023/09/26 22:28:49;;;;;;;;;;;16.70;99.90;;;;;;2618670;47;19943;-76
2023/09/26 22:31:21;;;;;;;;;;;16.70;99.90;;;;;;2619114;47;19939;-77
2023/09/26 22:33:52;;;;;;;;;;;17.10;99.90;;;;;;2618775;54;19990;-76
2023/09/26 22:36:22;;;;;;;;;;;16.70;99.90;;;;;;2618883;54;20022;-77
2023/09/26 22:38:52;;;;;;;;;;;16.70;99.90;;;;;;2619786;39;20394;-77
2023/09/26 22:41:22;;;;;;;;;;;16.70;99.90;;;;;;2620629;54;20998;-77
2023/09/26 22:43:52;;;;;;;;;;;16.70;99.90;;;;;;2621053;31;20452;-77
2023/09/26 22:46:24;;;;;;;;;;;16.70;99.90;;;;;;2618960;54;20172;-77
2023/09/26 22:48:54;;;;;;;;;;;16.70;99.90;;;;;;2618540;47;19939;-77
2023/09/26 22:51:24;;;;;;;;;;;16.70;99.90;;;;;;2619539;47;19939;-76
2023/09/26 22:53:54;;;;;;;;;;;16.70;99.90;;;;;;2626263;47;19939;-77
2023/09/26 22:56:24;;;;;;;;;;;16.70;99.90;;;;;;2619706;47;19999;-78
2023/09/26 22:58:54;;;;;;;;;;;16.70;99.90;;;;;;2618774;47;19945;-78
2023/09/26 23:01:27;;;;;;;;;;;16.70;99.90;;;;;;2622013;54;20011;-76
2023/09/26 23:03:57;;;;;;;;;;;16.60;99.90;;;;;;2620615;54;19939;-76
2023/09/26 23:06:27;;;;;;;;;;;16.60;99.90;;;;;;2621012;39;20335;-77
2023/09/26 23:08:58;;;;;;;;;;;16.60;99.90;;;;;;2620353;54;19939;-77
2023/09/26 23:11:28;;;;;;;;;;;16.60;99.90;;;;;;2619951;54;19951;-77
2023/09/26 23:13:58;;;;;;;;;;;16.60;99.90;;;;;;2619601;47;19938;-77
2023/09/26 23:16:32;;;;;;;;;;;16.40;99.90;;;;;;2621183;47;19939;-76
2023/09/26 23:19:02;;;;;;;;;;;16.50;99.90;;;;;;2620302;54;20164;-76
2023/09/26 23:21:32;;;;;;;;;;;16.60;99.90;;;;;;2619786;47;20432;-79
2023/09/26 23:24:03;;;;;;;;;;;16.60;99.90;;;;;;2620318;54;19946;-77
2023/09/26 23:26:33;;;;;;;;;;;16.50;99.90;;;;;;2619594;47;19958;-77
2023/09/26 23:29:03;;;;;;;;;;;17.00;99.90;;;;;;2618697;47;20026;-77
2023/09/26 23:31:37;;;;;;;;;;;16.40;99.90;;;;;;2618617;54;19939;-76
2023/09/26 23:34:07;;;;;;;;;;;16.50;99.90;;;;;;2618541;54;19946;-77
2023/09/26 23:36:37;;;;;;;;;;;16.40;99.90;;;;;;2618403;54;19945;-77
2023/09/26 23:39:08;;;;;;;;;;;16.40;99.90;;;;;;2618984;39;20089;-77
2023/09/26 23:41:38;;;;;;;;;;;16.30;99.90;;;;;;2622952;46;19974;-77
2023/09/26 23:44:13;;;;;;;;;;;16.40;99.90;;;;;;2619641;47;20054;-78
2023/09/26 23:46:47;;;;;;;;;;;16.40;99.90;;;;;;2618805;47;19939;-78
2023/09/26 23:49:17;;;;;;;;;;;16.40;99.90;;;;;;2618471;54;19953;-78
2023/09/26 23:51:49;;;;;;;;;;;16.40;99.90;;;;;;2618901;54;19938;-77
2023/09/26 23:54:19;;;;;;;;;;;16.30;99.90;;;;;;2619068;47;20066;-78
2023/09/26 23:56:49;;;;;;;;;;;16.20;99.90;;;;;;2618622;47;19994;-78
2023/09/26 23:59:19;;;;;;;;;;;16.30;99.90;;;;;;2619070;54;19955;-78
